Time;durP1;ratioP1;P1;durP2;ratioP2;P2;SDS_P1;SDS_P2;PMS_P1;PMS_P2;Temp;Humidity;BMP_temperature;BMP_pressure;BME280_temperature;BME280_humidity;BME280_pressure;Samples;Min_cycle;Max_cycle;Signal;HPM_P1;HPM_P2
2021/04/24 00:02:03;;;;;;;6.30;3.67;;;8.30;57.50;;;;;;5054195;28;20904;-77
2021/04/24 00:04:30;;;;;;;7.10;3.83;;;8.30;57.60;;;;;;5054338;28;20454;-77
2021/04/24 00:06:56;;;;;;;8.70;3.90;;;8.20;58.10;;;;;;5054197;28;20564;-77
2021/04/24 00:09:22;;;;;;;8.37;3.90;;;8.20;59.90;;;;;;5053920;28;20450;-77
2021/04/24 00:11:49;;;;;;;7.20;3.50;;;8.10;62.00;;;;;;5053811;28;20512;-77
2021/04/24 00:14:16;;;;;;;9.00;3.80;;;8.00;63.00;;;;;;5054129;28;20499;-77
2021/04/24 00:16:42;;;;;;;8.30;4.03;;;8.00;64.20;;;;;;5053989;28;20523;-77
2021/04/24 00:19:08;;;;;;;5.40;3.93;;;7.90;61.40;;;;;;5054046;28;20438;-77
2021/04/24 00:21:35;;;;;;;6.83;4.70;;;7.90;61.70;;;;;;5053690;28;20870;-76
2021/04/24 00:24:01;;;;;;;8.10;3.83;;;7.80;61.90;;;;;;5053594;28;20859;-77
2021/04/24 00:26:27;;;;;;;6.40;4.13;;;7.70;63.80;;;;;;5053714;28;20499;-77
2021/04/24 00:28:54;;;;;;;8.23;4.57;;;7.60;63.80;;;;;;5053515;28;20811;-77
2021/04/24 00:31:21;;;;;;;6.30;3.93;;;7.60;65.00;;;;;;5053507;28;20564;-77
2021/04/24 00:33:47;;;;;;;5.40;3.83;;;7.50;64.30;;;;;;5053457;28;20442;-76
2021/04/24 00:36:13;;;;;;;6.87;3.87;;;7.30;65.80;;;;;;5053312;28;20466;-77
2021/04/24 00:38:40;;;;;;;5.43;3.77;;;7.20;65.30;;;;;;5053656;28;20446;-76
2021/04/24 00:41:06;;;;;;;9.60;3.97;;;7.10;65.30;;;;;;5053638;28;20449;-77
2021/04/24 00:43:32;;;;;;;9.23;3.70;;;7.10;67.50;;;;;;5053541;28;20539;-77
2021/04/24 00:46:07;;;;;;;10.53;4.03;;;7.00;67.50;;;;;;5053146;28;20999;-77
2021/04/24 00:48:34;;;;;;;7.47;3.80;;;7.00;67.80;;;;;;5053608;28;20414;-77
2021/04/24 00:51:00;;;;;;;6.40;4.13;;;6.90;67.70;;;;;;5053131;28;20865;-77
2021/04/24 00:53:26;;;;;;;6.03;3.40;;;6.80;67.30;;;;;;5053153;28;20445;-77
2021/04/24 00:55:52;;;;;;;9.50;3.97;;;6.80;67.90;;;;;;5053308;28;20469;-77
2021/04/24 00:58:19;;;;;;;4.77;3.27;;;6.80;65.90;;;;;;5053474;28;20438;-76
2021/04/24 01:00:45;;;;;;;7.97;4.10;;;6.70;66.60;;;;;;5053367;28;20464;-77
2021/04/24 01:03:11;;;;;;;7.73;4.30;;;6.70;66.40;;;;;;5052993;28;20477;-77
2021/04/24 01:05:41;;;;;;;8.73;3.83;;;6.70;67.10;;;;;;5053223;28;20481;-77
2021/04/24 01:08:08;;;;;;;8.87;4.40;;;6.70;67.40;;;;;;5053288;28;20499;-77
2021/04/24 01:10:36;;;;;;;5.13;3.47;;;6.60;68.00;;;;;;5052986;28;20450;-76
2021/04/24 01:13:03;;;;;;;9.50;3.53;;;6.60;67.50;;;;;;5053188;28;20449;-77
2021/04/24 01:15:30;;;;;;;7.73;3.90;;;6.60;68.40;;;;;;5053113;28;20477;-76
2021/04/24 01:17:56;;;;;;;5.60;4.00;;;6.50;68.10;;;;;;5052844;28;20972;-77
2021/04/24 01:20:22;;;;;;;5.00;3.63;;;6.50;68.50;;;;;;5052962;28;20925;-80
2021/04/24 01:22:50;;;;;;;7.03;3.73;;;6.50;68.70;;;;;;5053139;28;20482;-80
2021/04/24 01:25:19;;;;;;;6.40;3.70;;;6.60;69.60;;;;;;5052929;28;20461;-81
2021/04/24 01:27:47;;;;;;;7.07;4.27;;;6.60;69.60;;;;;;5053262;28;20472;-80
2021/04/24 01:30:14;;;;;;;6.50;4.37;;;6.50;68.90;;;;;;5053194;28;20453;-80
2021/04/24 01:32:41;;;;;;;6.77;3.53;;;6.40;68.90;;;;;;5052717;28;20568;-80
2021/04/24 01:35:12;;;;;;;6.30;4.00;;;6.40;69.30;;;;;;5052984;28;20450;-80
2021/04/24 01:37:38;;;;;;;8.67;3.70;;;6.40;68.70;;;;;;5053202;28;20434;-80
2021/04/24 01:40:07;;;;;;;5.47;3.50;;;6.30;69.20;;;;;;5052734;28;20817;-80
2021/04/24 01:42:33;;;;;;;8.33;4.47;;;6.30;69.30;;;;;;5052941;28;20478;-80
2021/04/24 01:44:59;;;;;;;8.80;4.03;;;6.20;69.90;;;;;;5052911;28;20454;-80
2021/04/24 01:47:26;;;;;;;5.77;3.90;;;6.20;69.50;;;;;;5052764;28;21238;-80
2021/04/24 01:49:52;;;;;;;7.00;3.97;;;6.20;69.70;;;;;;5052926;28;20503;-80
2021/04/24 01:52:18;;;;;;;6.30;4.23;;;6.20;70.90;;;;;;5052775;28;20438;-80
2021/04/24 01:54:45;;;;;;;7.70;4.47;;;6.20;70.70;;;;;;5052821;28;20442;-80
2021/04/24 01:57:12;;;;;;;7.60;4.60;;;6.10;71.70;;;;;;5052890;28;20476;-80
2021/04/24 01:59:38;;;;;;;9.33;4.20;;;6.20;71.50;;;;;;5052585;28;20967;-81
2021/04/24 02:02:04;;;;;;;5.60;4.10;;;6.10;71.00;;;;;;5053690;28;20488;-80
2021/04/24 02:04:31;;;;;;;5.43;3.53;;;6.00;70.80;;;;;;5056365;28;20440;-81
2021/04/24 02:06:57;;;;;;;8.03;4.73;;;5.90;72.00;;;;;;5056483;28;20461;-80
2021/04/24 02:09:24;;;;;;;7.33;3.90;;;5.80;71.40;;;;;;5056561;28;20450;-80
2021/04/24 02:12:06;;;;;;;5.27;3.70;;;5.80;72.60;;;;;;5056258;28;20477;-81
2021/04/24 02:14:38;;;;;;;9.73;4.60;;;5.80;72.50;;;;;;5056593;28;20484;-80
2021/04/24 02:17:05;;;;;;;4.57;3.80;;;5.70;72.40;;;;;;5056329;28;20477;-80
2021/04/24 02:19:32;;;;;;;10.50;4.27;;;5.70;73.30;;;;;;5056109;28;20445;-80
2021/04/24 02:21:58;;;;;;;7.37;4.73;;;5.60;73.70;;;;;;5056221;28;20441;-82
2021/04/24 02:24:24;;;;;;;5.23;3.50;;;5.60;73.70;;;;;;5056302;28;20445;-80
2021/04/24 02:26:51;;;;;;;8.53;4.30;;;5.60;73.50;;;;;;5056199;28;20476;-80
2021/04/24 02:29:17;;;;;;;6.90;4.10;;;5.60;74.00;;;;;;5056264;28;20833;-80
2021/04/24 02:31:44;;;;;;;12.07;3.97;;;5.60;74.90;;;;;;5055742;28;21008;-81
2021/04/24 02:34:12;;;;;;;9.17;4.77;;;5.60;75.00;;;;;;5056124;28;20449;-80
2021/04/24 02:36:39;;;;;;;6.00;4.10;;;5.60;75.40;;;;;;5055658;28;20458;-80
2021/04/24 02:39:06;;;;;;;10.60;5.60;;;5.60;76.40;;;;;;5055970;28;20450;-80
2021/04/24 02:41:32;;;;;;;5.23;3.73;;;5.60;76.10;;;;;;5055960;28;20503;-80
2021/04/24 02:43:58;;;;;;;7.80;4.50;;;5.50;76.80;;;;;;5055893;28;20534;-80
2021/04/24 02:46:24;;;;;;;7.40;4.33;;;5.50;76.50;;;;;;5055797;28;20465;-80
2021/04/24 02:48:51;;;;;;;6.63;4.20;;;5.40;76.90;;;;;;5055844;28;20469;-80
2021/04/24 02:54:23;;;;;;;7.20;3.87;;;5.40;78.90;;;;;;5022230;28;20456;-80
2021/04/24 02:56:49;;;;;;;8.70;4.87;;;5.40;78.50;;;;;;5055361;28;20999;-80
2021/04/24 02:59:16;;;;;;;9.33;4.20;;;5.40;79.70;;;;;;5055642;28;20496;-80
2021/04/24 03:01:44;;;;;;;9.00;4.77;;;5.50;80.00;;;;;;5055536;28;20442;-81
2021/04/24 03:04:11;;;;;;;7.30;5.10;;;5.40;80.30;;;;;;5055350;28;20453;-80
2021/04/24 03:06:38;;;;;;;10.90;4.60;;;5.40;80.40;;;;;;5055108;28;20465;-79
2021/04/24 03:09:05;;;;;;;7.03;4.77;;;5.30;80.40;;;;;;5055432;28;20445;-80
2021/04/24 03:11:32;;;;;;;9.77;5.40;;;5.30;81.60;;;;;;5055367;28;20448;-80
2021/04/24 03:13:59;;;;;;;5.73;4.67;;;5.20;81.00;;;;;;5054787;28;20945;-80
2021/04/24 03:16:25;;;;;;;13.03;4.03;;;5.20;82.50;;;;;;5055286;28;20825;-81
2021/04/24 03:18:53;;;;;;;8.47;4.77;;;5.20;82.40;;;;;;5054990;28;20552;-77
2021/04/24 03:24:25;;;;;;;7.30;4.43;;;5.10;82.10;;;;;;5054681;28;20430;-77
2021/04/24 03:26:51;;;;;;;7.43;3.70;;;5.20;82.40;;;;;;5054878;28;20552;-77
2021/04/24 03:29:17;;;;;;;10.23;4.50;;;5.20;82.60;;;;;;5055033;28;20430;-76
2021/04/24 03:31:43;;;;;;;7.53;4.37;;;5.10;82.90;;;;;;5054617;28;20486;-77
2021/04/24 03:34:10;;;;;;;6.83;3.90;;;5.10;83.80;;;;;;5054673;28;20452;-77
2021/04/24 03:36:37;;;;;;;6.63;4.97;;;5.10;84.50;;;;;;5054837;28;20464;-80
2021/04/24 03:39:04;;;;;;;6.80;4.80;;;5.10;85.40;;;;;;5055557;28;20434;-80
2021/04/24 03:41:30;;;;;;;5.97;4.27;;;5.00;85.30;;;;;;5054612;28;20944;-80
2021/04/24 03:43:56;;;;;;;6.40;4.30;;;4.90;84.60;;;;;;5054477;28;21004;-80
2021/04/24 03:46:23;;;;;;;9.97;4.77;;;4.90;84.60;;;;;;5054407;28;21053;-80
2021/04/24 03:48:49;;;;;;;6.37;4.10;;;4.80;85.40;;;;;;5054673;28;20967;-80
2021/04/24 03:51:16;;;;;;;8.57;4.60;;;4.70;86.80;;;;;;5054497;28;20434;-81
2021/04/24 03:53:43;;;;;;;5.80;3.97;;;4.70;87.30;;;;;;5055009;28;20446;-81
2021/04/24 03:56:09;;;;;;;6.70;4.87;;;4.70;88.40;;;;;;5054468;28;20822;-80
2021/04/24 03:58:36;;;;;;;6.93;4.10;;;4.60;88.50;;;;;;5054195;28;20963;-80
2021/04/24 04:01:02;;;;;;;6.87;4.80;;;4.60;90.10;;;;;;5054478;28;20438;-80
2021/04/24 04:03:28;;;;;;;7.23;4.30;;;4.60;90.20;;;;;;5054088;28;20488;-80
2021/04/24 04:05:54;;;;;;;9.10;4.53;;;4.60;90.00;;;;;;5053988;28;20470;-80
2021/04/24 04:08:21;;;;;;;7.73;4.63;;;4.60;90.50;;;;;;5054345;28;20438;-80
2021/04/24 04:10:48;;;;;;;10.30;3.83;;;4.50;90.20;;;;;;5054208;28;20523;-81
2021/04/24 04:13:15;;;;;;;5.87;4.17;;;4.50;90.60;;;;;;5054263;28;20449;-81
2021/04/24 04:15:42;;;;;;;10.43;3.90;;;4.50;91.10;;;;;;5053759;28;20466;-77
2021/04/24 04:18:11;;;;;;;8.47;4.37;;;4.50;91.40;;;;;;5054694;28;20964;-76
2021/04/24 04:20:40;;;;;;;7.37;4.30;;;4.50;91.10;;;;;;5053659;28;20980;-77
2021/04/24 04:23:06;;;;;;;4.93;3.47;;;4.50;90.80;;;;;;5053877;28;20469;-76
2021/04/24 04:25:33;;;;;;;7.80;4.00;;;4.50;91.20;;;;;;5053186;28;20465;-77
2021/04/24 04:28:00;;;;;;;9.53;4.77;;;4.50;90.90;;;;;;5053590;28;20957;-77
2021/04/24 04:30:26;;;;;;;9.93;4.97;;;4.50;91.60;;;;;;5053735;28;20452;-77
2021/04/24 04:32:53;;;;;;;8.63;3.70;;;4.50;91.60;;;;;;5053390;28;20473;-77
2021/04/24 04:35:20;;;;;;;7.73;4.10;;;4.60;92.00;;;;;;5053454;28;20452;-77
2021/04/24 04:37:47;;;;;;;9.30;4.33;;;4.60;91.50;;;;;;5053745;28;20445;-77
2021/04/24 04:40:16;;;;;;;6.67;4.60;;;4.60;91.30;;;;;;5053696;28;20446;-77
2021/04/24 04:42:42;;;;;;;6.87;4.50;;;4.70;91.80;;;;;;5053275;28;20860;-77
2021/04/24 04:45:11;;;;;;;9.27;4.90;;;4.70;92.30;;;;;;5053196;28;20776;-77
2021/04/24 04:47:38;;;;;;;7.53;4.20;;;4.70;92.80;;;;;;5053297;28;20445;-76
2021/04/24 04:50:07;;;;;;;8.87;4.80;;;4.80;93.20;;;;;;5053534;28;20445;-76
2021/04/24 04:52:33;;;;;;;9.67;4.73;;;4.80;93.60;;;;;;5053504;28;20446;-77
2021/04/24 04:54:59;;;;;;;5.37;4.43;;;4.80;93.40;;;;;;5053396;28;20454;-77
2021/04/24 04:57:25;;;;;;;7.60;5.20;;;4.70;93.50;;;;;;5053431;28;20442;-77
2021/04/24 04:59:51;;;;;;;8.97;4.90;;;4.70;93.70;;;;;;5053123;28;21004;-76
2021/04/24 05:02:19;;;;;;;9.23;5.33;;;4.80;93.40;;;;;;5053285;28;20477;-77
2021/04/24 05:04:45;;;;;;;10.70;5.10;;;4.80;94.00;;;;;;5053332;28;20453;-77
2021/04/24 05:07:12;;;;;;;9.07;5.20;;;4.80;94.20;;;;;;5052919;28;20476;-77
2021/04/24 05:09:38;;;;;;;6.83;4.80;;;4.90;94.70;;;;;;5053275;28;20449;-77
2021/04/24 05:12:05;;;;;;;7.77;4.50;;;4.90;94.80;;;;;;5053239;28;20449;-77
2021/04/24 05:14:32;;;;;;;7.60;4.90;;;4.90;94.50;;;;;;5053221;28;20450;-76
2021/04/24 05:16:58;;;;;;;8.30;5.10;;;5.00;95.60;;;;;;5053121;28;20520;-76
2021/04/24 05:19:25;;;;;;;6.60;5.30;;;5.10;95.40;;;;;;5053203;28;20441;-77
2021/04/24 05:21:53;;;;;;;19.80;5.50;;;5.20;95.40;;;;;;5053079;28;20452;-77
2021/04/24 05:24:19;;;;;;;7.97;4.80;;;5.20;95.70;;;;;;5052781;28;21026;-77
2021/04/24 05:26:45;;;;;;;6.73;4.10;;;5.30;95.40;;;;;;5052975;28;20473;-77
2021/04/24 05:29:12;;;;;;;6.90;4.40;;;5.40;94.70;;;;;;5052765;28;20959;-76
2021/04/24 05:31:38;;;;;;;12.37;5.97;;;5.40;95.30;;;;;;5052542;28;21031;-77
2021/04/24 05:34:04;;;;;;;6.03;4.40;;;5.50;94.50;;;;;;5052668;28;20819;-76
2021/04/24 05:36:32;;;;;;;11.17;4.57;;;5.60;95.10;;;;;;5054998;28;20476;-77
2021/04/24 05:38:58;;;;;;;7.50;4.60;;;5.70;95.50;;;;;;5057036;28;20789;-77
2021/04/24 05:41:24;;;;;;;8.57;4.77;;;5.70;95.60;;;;;;5056725;28;20801;-76
2021/04/24 05:43:52;;;;;;;9.10;5.40;;;5.80;94.00;;;;;;5056552;28;20992;-77
2021/04/24 05:46:20;;;;;;;7.90;4.60;;;5.90;93.60;;;;;;5056663;28;20507;-77
2021/04/24 05:48:47;;;;;;;8.10;5.53;;;6.00;93.10;;;;;;5056567;28;20450;-77
2021/04/24 05:51:13;;;;;;;8.63;4.83;;;6.20;93.10;;;;;;5056804;28;20450;-77
2021/04/24 05:53:40;;;;;;;7.23;4.83;;;6.40;92.40;;;;;;5056415;28;21010;-77
2021/04/24 05:56:07;;;;;;;21.10;11.77;;;6.70;92.30;;;;;;5056514;28;20507;-76
2021/04/24 05:58:34;;;;;;;15.10;7.63;;;6.90;92.50;;;;;;5056351;28;20457;-77
2021/04/24 06:01:00;;;;;;;11.13;5.47;;;7.20;91.50;;;;;;5056661;28;20450;-77
2021/04/24 06:03:26;;;;;;;9.40;5.83;;;7.60;90.80;;;;;;5056510;28;20485;-77
2021/04/24 06:05:53;;;;;;;6.50;5.30;;;8.00;90.10;;;;;;5056519;28;20469;-77
2021/04/24 06:08:19;;;;;;;7.77;4.87;;;8.50;87.00;;;;;;5056232;28;20441;-77
2021/04/24 06:10:46;;;;;;;9.70;5.90;;;8.90;83.40;;;;;;5056491;28;20445;-77
2021/04/24 06:13:12;;;;;;;11.53;5.60;;;9.20;80.00;;;;;;5056477;28;20441;-77
2021/04/24 06:15:39;;;;;;;7.93;6.00;;;9.30;79.30;;;;;;5056389;28;20465;-77
2021/04/24 06:18:05;;;;;;;8.67;5.73;;;9.50;79.20;;;;;;5056333;28;20456;-77
2021/04/24 06:20:31;;;;;;;9.20;5.23;;;9.70;78.20;;;;;;5055975;28;20829;-77
2021/04/24 06:22:58;;;;;;;7.40;5.20;;;10.00;76.40;;;;;;5055846;28;20473;-77
2021/04/24 06:25:25;;;;;;;8.20;5.70;;;10.30;76.00;;;;;;5056183;28;20466;-76
2021/04/24 06:27:52;;;;;;;11.40;5.80;;;10.60;74.50;;;;;;5056124;28;20449;-76
2021/04/24 06:30:21;;;;;;;10.97;5.73;;;10.90;75.50;;;;;;5056683;28;20452;-77
2021/04/24 06:32:49;;;;;;;6.37;4.90;;;11.40;73.60;;;;;;5055568;28;20891;-77
2021/04/24 06:35:16;;;;;;;6.13;5.53;;;11.80;69.50;;;;;;5055958;28;20462;-77
2021/04/24 06:37:43;;;;;;;7.57;5.50;;;12.50;68.00;;;;;;5056022;28;20457;-77
2021/04/24 06:40:12;;;;;;;7.70;5.00;;;13.00;64.80;;;;;;5055947;28;20529;-77
2021/04/24 06:42:39;;;;;;;7.83;4.80;;;13.90;64.80;;;;;;5055634;28;21000;-77
2021/04/24 06:45:08;;;;;;;6.97;5.10;;;15.10;61.10;;;;;;5055808;28;20442;-81
2021/04/24 06:47:35;;;;;;;6.90;4.57;;;16.10;58.60;;;;;;5054830;28;20461;-80
2021/04/24 06:50:02;;;;;;;8.77;5.30;;;17.10;57.40;;;;;;5055835;28;20859;-77
2021/04/24 06:52:29;;;;;;;5.70;5.13;;;17.90;53.40;;;;;;5055397;28;20933;-77
2021/04/24 06:54:55;;;;;;;4.73;4.30;;;18.90;52.40;;;;;;5055560;28;20438;-77
2021/04/24 06:57:21;;;;;;;5.57;4.73;;;19.80;50.70;;;;;;5055435;28;20901;-80
2021/04/24 06:59:48;;;;;;;5.50;5.00;;;20.80;47.60;;;;;;5055375;28;20826;-81
2021/04/24 07:02:16;;;;;;;5.47;4.97;;;21.20;45.00;;;;;;5055666;28;20183;-80
2021/04/24 07:04:43;;;;;;;7.03;4.80;;;21.70;44.00;;;;;;5055539;28;20217;-77
2021/04/24 07:07:09;;;;;;;5.75;4.57;;;22.20;42.30;;;;;;5055388;28;20305;-78
2021/04/24 07:09:36;;;;;;;6.25;5.05;;;22.70;41.00;;;;;;5055515;28;20191;-80
2021/04/24 07:12:03;;;;;;;5.88;5.28;;;22.50;40.00;;;;;;5055456;28;20242;-78
2021/04/24 07:14:29;;;;;;;5.57;4.95;;;22.60;40.10;;;;;;5055355;28;20190;-78
2021/04/24 07:16:56;;;;;;;6.65;5.38;;;23.10;39.30;;;;;;5055243;28;20227;-78
2021/04/24 07:19:23;;;;;;;6.68;5.15;;;24.30;39.20;;;;;;5055262;28;20183;-78
2021/04/24 07:21:49;;;;;;;6.07;4.97;;;25.30;36.90;;;;;;5055190;28;20198;-77
2021/04/24 07:24:15;;;;;;;5.40;4.90;;;26.00;34.80;;;;;;5054757;28;20576;-79
2021/04/24 07:26:42;;;;;;;5.13;4.68;;;26.80;33.60;;;;;;5054792;28;20312;-79
2021/04/24 07:29:08;;;;;;;9.05;6.05;;;27.40;32.60;;;;;;5055019;28;20613;-80
2021/04/24 07:31:35;;;;;;;8.25;5.78;;;27.70;30.60;;;;;;5054562;28;20230;-79
2021/04/24 07:34:02;;;;;;;5.78;5.22;;;28.00;30.70;;;;;;5054915;28;20253;-80
2021/04/24 07:36:30;;;;;;;5.88;5.28;;;28.20;30.50;;;;;;5054841;28;20225;-80
2021/04/24 07:38:57;;;;;;;11.15;5.63;;;28.60;30.00;;;;;;5054514;28;20709;-81
2021/04/24 07:41:23;;;;;;;8.38;6.07;;;29.10;28.90;;;;;;5054837;28;20203;-81
2021/04/24 07:43:49;;;;;;;7.38;6.20;;;29.10;28.70;;;;;;5054722;28;20251;-80
2021/04/24 07:46:16;;;;;;;7.75;5.53;;;29.40;28.70;;;;;;5054657;28;20561;-80
2021/04/24 07:48:42;;;;;;;6.90;6.07;;;29.30;28.70;;;;;;5054391;28;20205;-79
2021/04/24 07:51:08;;;;;;;7.85;5.25;;;29.40;28.00;;;;;;5054564;28;20204;-80
2021/04/24 07:53:35;;;;;;;10.60;6.72;;;29.90;27.30;;;;;;5054599;28;20203;-81
2021/04/24 07:56:02;;;;;;;6.03;5.53;;;30.90;26.60;;;;;;5054482;28;20230;-81
2021/04/24 07:58:28;;;;;;;7.20;6.35;;;31.70;25.70;;;;;;5054120;28;20196;-80
2021/04/24 08:00:55;;;;;;;6.78;5.68;;;32.30;26.10;;;;;;5053603;28;20210;-80
2021/04/24 08:03:21;;;;;;;6.43;5.80;;;32.90;25.30;;;;;;5054199;28;20257;-81
2021/04/24 08:05:48;;;;;;;7.63;5.68;;;33.60;24.40;;;;;;5053971;28;20732;-80
2021/04/24 08:08:14;;;;;;;8.15;5.82;;;33.90;23.90;;;;;;5054348;28;20285;-81
2021/04/24 08:10:41;;;;;;;6.90;6.22;;;34.70;22.50;;;;;;5053950;28;20739;-81
2021/04/24 08:13:08;;;;;;;6.38;5.85;;;34.30;23.00;;;;;;5054202;28;20202;-80
2021/04/24 08:15:34;;;;;;;6.60;5.93;;;34.70;22.90;;;;;;5054602;28;20227;-80
2021/04/24 08:18:01;;;;;;;6.45;5.95;;;35.00;22.80;;;;;;5054981;28;20198;-81
2021/04/24 08:20:27;;;;;;;6.57;6.07;;;35.00;22.60;;;;;;5054120;28;20204;-81
2021/04/24 08:22:53;;;;;;;6.93;6.30;;;35.30;22.70;;;;;;5054681;28;20219;-81
2021/04/24 08:25:21;;;;;;;7.40;6.70;;;35.90;22.20;;;;;;5053913;28;20223;-80
2021/04/24 08:27:48;;;;;;;6.53;5.63;;;35.80;22.30;;;;;;5054255;28;20206;-81
2021/04/24 08:30:15;;;;;;;5.40;4.97;;;35.40;22.90;;;;;;5053594;28;20618;-81
2021/04/24 08:32:43;;;;;;;8.35;6.35;;;35.40;22.40;;;;;;5053371;28;20695;-80
2021/04/24 08:35:10;;;;;;;6.78;6.18;;;35.20;23.10;;;;;;5053469;28;20264;-81
2021/04/24 08:37:38;;;;;;;7.30;6.68;;;35.00;22.20;;;;;;5053843;28;20199;-80
2021/04/24 08:40:06;;;;;;;5.80;5.40;;;34.90;21.90;;;;;;5053792;28;20210;-80
2021/04/24 08:42:33;;;;;;;7.80;6.00;;;34.10;22.20;;;;;;5053660;28;20217;-80
2021/04/24 08:45:00;;;;;;;7.25;5.78;;;33.40;22.50;;;;;;5053553;28;20188;-80
2021/04/24 08:47:28;;;;;;;6.88;5.75;;;32.70;22.50;;;;;;5053596;28;20205;-80
2021/04/24 08:49:55;;;;;;;6.53;5.93;;;32.20;23.10;;;;;;5053739;28;20196;-80
2021/04/24 08:52:22;;;;;;;6.18;5.68;;;31.30;23.60;;;;;;5053123;28;20206;-78
2021/04/24 08:54:50;;;;;;;7.55;5.75;;;30.70;24.90;;;;;;5053501;28;20288;-78
2021/04/24 08:57:17;;;;;;;7.70;6.38;;;30.60;24.90;;;;;;5053246;28;20202;-78
2021/04/24 08:59:43;;;;;;;6.50;5.90;;;30.60;24.20;;;;;;5053451;28;20269;-78
2021/04/24 09:02:10;;;;;;;7.03;5.50;;;30.60;24.50;;;;;;5052923;28;20575;-80
2021/04/24 09:04:37;;;;;;;6.85;5.60;;;30.40;24.60;;;;;;5052941;28;20707;-80
2021/04/24 09:07:03;;;;;;;12.85;6.10;;;30.50;24.80;;;;;;5053281;28;20224;-80
2021/04/24 09:09:30;;;;;;;7.10;5.35;;;30.60;23.70;;;;;;5053000;28;20694;-80
2021/04/24 09:12:00;;;;;;;8.48;5.60;;;30.30;25.20;;;;;;5053005;28;20299;-80
2021/04/24 09:14:27;;;;;;;5.57;5.07;;;30.80;23.50;;;;;;5053027;28;20734;-80
2021/04/24 09:16:54;;;;;;;7.70;5.53;;;30.80;23.30;;;;;;5052953;28;20256;-79
2021/04/24 09:19:32;;;;;;;4.40;4.10;;;30.90;22.90;;;;;;5052991;28;20700;-78
2021/04/24 09:22:12;;;;;;;11.95;6.40;;;30.60;23.00;;;;;;5053225;28;20185;-78
2021/04/24 09:24:39;;;;;;;5.53;4.65;;;30.10;23.50;;;;;;5052867;28;20211;-78
2021/04/24 09:27:06;;;;;;;7.88;5.43;;;29.80;22.80;;;;;;5052820;28;20589;-79
2021/04/24 09:29:32;;;;;;;5.85;5.28;;;29.60;24.70;;;;;;5053214;28;20642;-79
2021/04/24 09:32:13;;;;;;;5.30;4.78;;;29.80;23.90;;;;;;5052643;28;20245;-78
2021/04/24 09:37:17;;;;;;;5.03;4.53;;;30.10;23.90;;;;;;5838994;22;20212;-79
2021/04/24 09:39:47;;;;;;;6.35;5.32;;;30.00;24.50;;;;;;5053107;28;20230;-78
2021/04/24 09:42:34;;;;;;;5.72;4.75;;;30.20;23.80;;;;;;5053036;28;20249;-79
2021/04/24 09:45:01;;;;;;;4.78;4.32;;;30.80;23.70;;;;;;5052723;28;20579;-78
2021/04/24 09:47:40;;;;;;;7.03;4.63;;;30.90;22.40;;;;;;5052729;28;20709;-79
2021/04/24 09:50:13;;;;;;;5.15;4.65;;;30.50;22.90;;;;;;5052994;28;20247;-79
2021/04/24 09:52:40;;;;;;;6.80;5.20;;;29.70;23.20;;;;;;5052991;28;20188;-78
2021/04/24 09:55:12;;;;;;;7.95;5.18;;;29.50;23.70;;;;;;5052846;28;20183;-79
2021/04/24 09:57:38;;;;;;;4.97;4.57;;;29.00;23.70;;;;;;5052948;28;20187;-79
2021/04/24 10:00:07;;;;;;;6.78;4.80;;;28.70;23.90;;;;;;5052865;28;20210;-78
2021/04/24 10:02:37;;;;;;;10.05;5.25;;;28.80;23.00;;;;;;5052463;28;20188;-78
2021/04/24 10:05:12;;;;;;;8.57;6.40;;;28.00;23.80;;;;;;5052742;28;20187;-78
2021/04/24 10:07:40;;;;;;;5.57;5.07;;;27.60;24.40;;;;;;5052866;28;20198;-78
2021/04/24 10:10:09;;;;;;;6.55;4.82;;;27.70;23.60;;;;;;5052405;28;20666;-78
2021/04/24 10:12:35;;;;;;;7.15;4.82;;;27.90;23.60;;;;;;5052456;28;20203;-78
2021/04/24 10:15:03;;;;;;;6.90;5.13;;;27.40;24.80;;;;;;5052498;28;20209;-80
2021/04/24 10:17:30;;;;;;;6.25;5.45;;;27.30;26.20;;;;;;5052459;28;20566;-79
2021/04/24 10:19:56;;;;;;;9.00;4.95;;;27.40;24.50;;;;;;5052917;28;20558;-77
2021/04/24 10:22:24;;;;;;;5.53;4.93;;;27.20;24.60;;;;;;5052881;28;20187;-79
2021/04/24 10:24:53;;;;;;;6.18;5.20;;;27.00;26.50;;;;;;5056053;28;20213;-78
2021/04/24 10:27:21;;;;;;;6.07;5.15;;;27.10;24.00;;;;;;5055974;28;20226;-79
2021/04/24 10:29:49;;;;;;;5.38;4.68;;;27.00;24.60;;;;;;5056305;28;20191;-78
2021/04/24 10:32:16;;;;;;;7.72;5.25;;;27.40;24.50;;;;;;5056164;28;20198;-79
2021/04/24 10:34:43;;;;;;;6.22;5.63;;;27.90;25.70;;;;;;5055962;28;20194;-78
2021/04/24 10:37:11;;;;;;;6.68;4.85;;;28.60;23.80;;;;;;5056122;28;20224;-77
2021/04/24 10:39:39;;;;;;;6.75;5.65;;;29.50;23.30;;;;;;5056143;28;20179;-79
2021/04/24 10:42:12;;;;;;;5.28;4.75;;;30.20;23.40;;;;;;5055563;28;20261;-78
2021/04/24 10:44:51;;;;;;;8.30;5.18;;;31.40;21.80;;;;;;5055408;28;20214;-79
2021/04/24 10:47:44;;;;;;;5.90;5.13;;;32.00;21.40;;;;;;5055850;28;20224;-80
2021/04/24 10:50:11;;;;;;;5.97;5.30;;;32.50;20.30;;;;;;5055955;28;20192;-80
2021/04/24 10:52:39;;;;;;;6.20;5.57;;;32.50;20.80;;;;;;5055863;28;20216;-79
2021/04/24 10:55:26;;;;;;;6.57;5.75;;;32.40;21.00;;;;;;5055697;28;20206;-79
2021/04/24 10:57:56;;;;;;;6.63;5.57;;;32.50;22.00;;;;;;5055742;28;20548;-79
2021/04/24 11:00:25;;;;;;;6.07;5.57;;;32.60;20.70;;;;;;5055679;28;20188;-79
2021/04/24 11:02:52;;;;;;;6.82;4.70;;;31.90;21.00;;;;;;5055355;28;20564;-79
2021/04/24 11:05:28;;;;;;;6.55;5.18;;;31.20;22.30;;;;;;5055586;28;20600;-80
2021/04/24 11:08:22;;;;;;;6.97;6.28;;;30.40;21.30;;;;;;5055276;28;20677;-80
2021/04/24 11:10:59;;;;;;;6.35;5.75;;;28.80;22.50;;;;;;5055332;28;20528;-81
2021/04/24 11:13:28;;;;;;;5.82;5.30;;;27.30;23.60;;;;;;5055114;28;20186;-81
2021/04/24 11:15:55;;;;;;;7.10;5.40;;;26.00;23.90;;;;;;5055074;28;20227;-80
2021/04/24 11:18:22;;;;;;;7.60;4.95;;;25.20;24.30;;;;;;5055436;28;20226;-81
2021/04/24 11:20:57;;;;;;;6.95;5.00;;;24.40;25.30;;;;;;5056139;28;20223;-80
2021/04/24 11:23:45;;;;;;;7.05;5.30;;;24.10;26.30;;;;;;5054969;28;20573;-81
2021/04/24 11:26:15;;;;;;;5.50;4.87;;;23.70;26.40;;;;;;5055048;28;20222;-82
2021/04/24 11:29:16;;;;;;;5.97;5.37;;;23.30;25.90;;;;;;5055282;28;20187;-80
2021/04/24 11:31:57;;;;;;;8.53;6.60;;;23.10;26.00;;;;;;5055126;28;20472;-80
2021/04/24 11:34:33;;;;;;;8.70;5.63;;;23.00;25.70;;;;;;5054909;28;20425;-81
2021/04/24 11:37:37;;;;;;;7.37;5.93;;;22.70;26.60;;;;;;5054654;28;20974;-80
2021/04/24 11:40:22;;;;;;;9.87;7.40;;;22.30;27.70;;;;;;5054656;28;20574;-80
2021/04/24 11:43:06;;;;;;;7.57;6.53;;;22.30;27.90;;;;;;5055103;28;20449;-79
2021/04/24 11:45:58;;;;;;;9.70;7.00;;;22.10;28.30;;;;;;5054772;28;20465;-79
2021/04/24 11:48:58;;;;;;;15.43;8.07;;;22.10;28.80;;;;;;5054770;28;20799;-79
2021/04/24 11:51:35;;;;;;;9.63;7.13;;;22.10;29.50;;;;;;5054445;28;20924;-79
2021/04/24 11:54:02;;;;;;;9.60;7.60;;;22.10;29.30;;;;;;5054487;28;20487;-79
2021/04/24 11:56:29;;;;;;;12.57;7.00;;;22.00;29.60;;;;;;5054634;28;20473;-79
2021/04/24 11:58:55;;;;;;;10.60;8.27;;;22.00;30.00;;;;;;5055203;28;20453;-79
2021/04/24 12:01:24;;;;;;;10.60;8.00;;;22.00;29.80;;;;;;5054241;28;20429;-79
2021/04/24 12:03:51;;;;;;;12.27;8.60;;;22.00;30.60;;;;;;5054223;28;20515;-79
2021/04/24 12:06:42;;;;;;;10.43;7.53;;;22.00;30.50;;;;;;5054417;28;20461;-79
2021/04/24 12:09:11;;;;;;;12.23;8.03;;;21.90;31.70;;;;;;5054403;28;20430;-78
2021/04/24 12:11:38;;;;;;;10.87;7.73;;;21.90;30.20;;;;;;5054407;28;20482;-79
2021/04/24 12:14:05;;;;;;;13.63;9.00;;;21.80;30.60;;;;;;5054380;28;20417;-79
2021/04/24 12:16:44;;;;;;;11.70;7.63;;;21.70;31.00;;;;;;5053868;28;20545;-79
2021/04/24 12:19:26;;;;;;;10.10;8.00;;;21.70;31.90;;;;;;5054206;28;20440;-79
2021/04/24 12:22:07;;;;;;;11.73;8.00;;;21.60;31.10;;;;;;5052114;28;20952;-79
2021/04/24 12:24:35;;;;;;;10.80;7.57;;;21.60;30.60;;;;;;5054168;28;20526;-79
2021/04/24 12:27:23;;;;;;;12.00;7.83;;;21.50;32.00;;;;;;5053689;28;20462;-79
2021/04/24 12:29:51;;;;;;;12.03;7.83;;;21.20;31.80;;;;;;5054024;28;20422;-80
2021/04/24 12:32:20;;;;;;;10.13;7.77;;;21.10;30.40;;;;;;5053904;28;20476;-79
2021/04/24 12:34:47;;;;;;;10.47;7.97;;;21.00;30.50;;;;;;5053632;28;20430;-78
2021/04/24 12:37:17;;;;;;;12.17;8.83;;;20.70;30.00;;;;;;5053619;28;20461;-78
2021/04/24 12:39:44;;;;;;;11.07;7.80;;;20.50;31.10;;;;;;5053802;28;20437;-78
2021/04/24 12:42:12;;;;;;;13.23;8.40;;;20.20;30.70;;;;;;5053416;28;20453;-78
2021/04/24 12:44:39;;;;;;;9.33;7.40;;;20.00;31.20;;;;;;5053553;28;20486;-78
2021/04/24 12:47:06;;;;;;;12.27;7.10;;;19.90;31.20;;;;;;5052719;28;20842;-78
2021/04/24 12:49:34;;;;;;;10.97;7.77;;;19.80;31.00;;;;;;5053589;28;20449;-79
2021/04/24 12:52:02;;;;;;;10.83;7.83;;;19.70;31.60;;;;;;5053573;28;20499;-79
2021/04/24 12:54:29;;;;;;;10.00;7.60;;;19.50;31.60;;;;;;5053561;28;20445;-77
2021/04/24 12:57:13;;;;;;;11.53;7.70;;;19.40;32.00;;;;;;5053220;28;20470;-77
2021/04/24 12:59:40;;;;;;;12.00;8.03;;;19.30;31.70;;;;;;5054016;28;20450;-77
2021/04/24 13:02:06;;;;;;;14.50;8.43;;;19.30;32.30;;;;;;5053474;28;20803;-77
2021/04/24 13:04:33;;;;;;;10.07;7.10;;;19.40;31.10;;;;;;5053355;28;20474;-77
2021/04/24 13:07:01;;;;;;;12.00;8.70;;;19.20;31.80;;;;;;5053373;28;20525;-80